Time;durP1;ratioP1;P1;durP2;ratioP2;P2;SDS_P1;SDS_P2;PMS_P1;PMS_P2;Temp;Humidity;BMP_temperature;BMP_pressure;BME280_temperature;BME280_humidity;BME280_pressure;Samples;Min_cycle;Max_cycle;Signal;HPM_P1;HPM_P2
2020/12/14 00:00:26;;;;;;;17.15;15.20;;;4.50;99.90;;;;;;5046227;28;20200;-71
2020/12/14 00:02:53;;;;;;;17.27;15.63;;;4.50;99.90;;;;;;5063988;28;20063;-70
2020/12/14 00:05:20;;;;;;;16.67;15.02;;;4.40;99.90;;;;;;5045512;28;20118;-70
2020/12/14 00:07:46;;;;;;;18.02;16.23;;;4.40;99.90;;;;;;5062661;28;20048;-70
2020/12/14 00:10:13;;;;;;;18.52;16.50;;;4.40;99.90;;;;;;5067101;28;20505;-70
2020/12/14 00:12:39;;;;;;;17.88;15.77;;;4.40;99.90;;;;;;5068220;28;20113;-70
2020/12/14 00:15:06;;;;;;;17.58;15.32;;;4.40;99.90;;;;;;5066301;28;20044;-72
2020/12/14 00:17:33;;;;;;;18.73;16.13;;;4.30;99.90;;;;;;5050030;28;20054;-70
2020/12/14 00:20:00;;;;;;;17.02;15.15;;;4.30;99.90;;;;;;5049698;28;20516;-70
2020/12/14 00:22:33;;;;;;;19.20;15.85;;;4.20;99.90;;;;;;5066400;28;20044;-70
2020/12/14 00:25:01;;;;;;;18.83;16.23;;;4.20;99.90;;;;;;5064683;28;20049;-71
2020/12/14 00:27:28;;;;;;;19.27;14.82;;;4.20;99.90;;;;;;5061695;28;20044;-73
2020/12/14 00:29:55;;;;;;;19.50;14.13;;;4.20;99.90;;;;;;5064691;28;20044;-72
2020/12/14 00:32:22;;;;;;;18.02;15.95;;;4.20;99.90;;;;;;5068055;28;20082;-73
2020/12/14 00:34:48;;;;;;;23.80;16.27;;;4.20;99.90;;;;;;5066347;28;20143;-72
2020/12/14 00:37:15;;;;;;;21.52;15.20;;;4.10;99.90;;;;;;5067317;28;20135;-72
2020/12/14 00:39:41;;;;;;;19.20;16.10;;;4.10;99.90;;;;;;5066232;28;20074;-71
2020/12/14 00:42:07;;;;;;;20.42;16.70;;;4.10;99.90;;;;;;5066149;28;20054;-71
2020/12/14 00:44:33;;;;;;;23.00;15.90;;;4.00;99.90;;;;;;5048572;28;20071;-71
2020/12/14 00:47:00;;;;;;;18.13;15.65;;;4.10;99.90;;;;;;5067207;28;20049;-70
2020/12/14 00:49:26;;;;;;;17.02;15.38;;;4.00;99.90;;;;;;5067701;28;20057;-71
2020/12/14 00:51:53;;;;;;;18.50;16.63;;;3.90;99.90;;;;;;5032334;28;20048;-71
2020/12/14 00:54:19;;;;;;;16.42;14.73;;;3.90;99.90;;;;;;5029746;28;20056;-70
2020/12/14 00:56:46;;;;;;;17.90;15.55;;;3.90;99.90;;;;;;5036522;28;20543;-70
2020/12/14 00:59:12;;;;;;;16.02;14.43;;;3.90;99.90;;;;;;5045448;28;20429;-70
2020/12/14 01:01:38;;;;;;;20.30;15.30;;;3.90;99.90;;;;;;5046632;28;20066;-71
2020/12/14 01:04:05;;;;;;;16.77;14.88;;;3.80;99.90;;;;;;5066247;28;20036;-70
2020/12/14 01:06:31;;;;;;;17.65;15.77;;;3.90;99.90;;;;;;5048638;28;20062;-71
2020/12/14 01:08:57;;;;;;;17.40;14.35;;;3.90;99.90;;;;;;5049643;28;20041;-71
2020/12/14 01:11:28;;;;;;;13.20;11.90;;;3.90;99.90;;;;;;5066370;28;20051;-70
2020/12/14 01:13:54;;;;;;;15.85;13.65;;;3.90;99.90;;;;;;5033033;28;20505;-71
2020/12/14 01:16:21;;;;;;;17.73;13.98;;;3.90;99.90;;;;;;5028428;28;20052;-71
2020/12/14 01:18:48;;;;;;;15.05;13.55;;;3.90;99.90;;;;;;5046299;28;20509;-71
2020/12/14 01:21:19;;;;;;;14.98;13.38;;;3.90;99.90;;;;;;5045600;28;20052;-70
2020/12/14 01:23:45;;;;;;;16.58;13.57;;;3.90;99.90;;;;;;5049816;28;20044;-70
2020/12/14 01:26:11;;;;;;;13.75;12.45;;;4.00;99.90;;;;;;5064738;28;20053;-70
2020/12/14 01:28:38;;;;;;;15.10;13.27;;;4.00;99.90;;;;;;5075880;28;20048;-70
2020/12/14 01:31:04;;;;;;;13.65;12.23;;;4.00;99.90;;;;;;5064396;28;20053;-70
2020/12/14 01:33:30;;;;;;;14.75;12.60;;;4.00;99.90;;;;;;5065145;28;20098;-70
2020/12/14 01:36:01;;;;;;;14.88;13.25;;;4.00;99.90;;;;;;5063913;28;20052;-70
2020/12/14 01:38:28;;;;;;;14.77;12.68;;;4.00;99.90;;;;;;5049058;28;20045;-70
2020/12/14 01:40:54;;;;;;;16.63;12.80;;;4.00;99.90;;;;;;5031269;28;20053;-70
2020/12/14 01:43:22;;;;;;;12.90;11.63;;;4.00;99.90;;;;;;5066082;28;20154;-70
2020/12/14 01:45:52;;;;;;;13.93;12.52;;;4.00;99.90;;;;;;5064541;28;20534;-70
2020/12/14 01:48:23;;;;;;;17.42;12.23;;;4.00;99.90;;;;;;5065207;28;20052;-70
2020/12/14 01:50:51;;;;;;;15.65;11.77;;;4.10;99.90;;;;;;5064122;28;20048;-71
2020/12/14 01:53:20;;;;;;;18.83;13.18;;;4.10;99.90;;;;;;5048759;28;20568;-70
2020/12/14 01:55:50;;;;;;;14.73;12.70;;;4.20;99.90;;;;;;5059862;28;20054;-70
2020/12/14 01:58:16;;;;;;;19.85;13.57;;;4.20;99.90;;;;;;5046581;28;20045;-70
2020/12/14 02:00:43;;;;;;;16.42;13.98;;;4.20;99.90;;;;;;5027887;28;20049;-71
2020/12/14 02:03:09;;;;;;;15.02;13.55;;;4.30;99.90;;;;;;5043765;28;20065;-70
2020/12/14 02:05:35;;;;;;;14.70;13.15;;;4.30;99.90;;;;;;5029092;28;20045;-70
2020/12/14 02:08:05;;;;;;;15.57;12.38;;;4.30;99.90;;;;;;5064092;28;20586;-70
2020/12/14 02:10:32;;;;;;;14.90;13.15;;;4.40;99.90;;;;;;5063744;28;20100;-70
2020/12/14 02:12:59;;;;;;;16.52;14.10;;;4.40;99.90;;;;;;5031653;28;20048;-71
2020/12/14 02:15:25;;;;;;;17.50;15.60;;;4.40;99.90;;;;;;5064483;28;20070;-70
2020/12/14 02:17:51;;;;;;;26.88;14.77;;;4.40;99.90;;;;;;5064813;28;20529;-71
2020/12/14 02:20:18;;;;;;;20.75;13.35;;;4.40;99.90;;;;;;5064292;28;20063;-70
2020/12/14 02:22:44;;;;;;;17.73;15.25;;;4.40;99.90;;;;;;5065489;28;20052;-71
2020/12/14 02:25:10;;;;;;;16.65;13.35;;;4.40;99.90;;;;;;5061890;28;20048;-71
2020/12/14 02:27:37;;;;;;;18.10;15.25;;;4.40;99.90;;;;;;5055231;28;20584;-71
2020/12/14 02:30:06;;;;;;;22.30;16.38;;;4.40;99.90;;;;;;5043354;28;20049;-71
2020/12/14 02:32:33;;;;;;;17.85;15.65;;;4.50;99.90;;;;;;5043918;28;20131;-71
2020/12/14 02:34:59;;;;;;;18.58;16.23;;;4.40;99.90;;;;;;5053415;28;20040;-70
2020/12/14 02:37:28;;;;;;;21.33;16.95;;;4.50;99.90;;;;;;5046601;28;20051;-71
2020/12/14 02:39:55;;;;;;;20.98;15.05;;;4.50;99.90;;;;;;5063564;28;20505;-71
2020/12/14 02:42:23;;;;;;;17.27;15.45;;;4.50;99.90;;;;;;5050472;28;20040;-71
2020/12/14 02:44:50;;;;;;;22.23;17.55;;;4.50;99.90;;;;;;5037975;28;20484;-71
2020/12/14 02:47:17;;;;;;;21.50;17.40;;;4.50;99.90;;;;;;5054606;28;20044;-70
2020/12/14 02:49:44;;;;;;;17.90;15.18;;;4.60;99.90;;;;;;5064522;28;20127;-71
2020/12/14 02:52:12;;;;;;;21.00;18.75;;;4.60;99.90;;;;;;5064037;28;20041;-71
2020/12/14 02:54:39;;;;;;;25.77;18.90;;;4.50;99.90;;;;;;5065122;28;20049;-71
2020/12/14 02:57:06;;;;;;;18.98;16.85;;;4.60;99.90;;;;;;5035619;28;20057;-71
2020/12/14 02:59:32;;;;;;;24.38;17.50;;;4.60;99.90;;;;;;5044343;28;20509;-71
2020/12/14 03:01:59;;;;;;;19.35;17.17;;;4.60;99.90;;;;;;5043670;28;20044;-71
2020/12/14 03:04:25;;;;;;;21.77;17.52;;;4.70;99.90;;;;;;5043914;28;20049;-71
2020/12/14 03:06:52;;;;;;;20.48;17.20;;;4.70;99.90;;;;;;5028630;28;20040;-71
2020/12/14 03:09:20;;;;;;;20.10;16.67;;;4.70;99.90;;;;;;5051104;28;20071;-71
2020/12/14 03:11:47;;;;;;;18.80;16.48;;;4.60;99.90;;;;;;5064147;28;20052;-71
2020/12/14 03:14:15;;;;;;;18.60;15.85;;;4.70;99.90;;;;;;5047411;28;20157;-71
2020/12/14 03:16:43;;;;;;;21.20;15.40;;;4.70;99.90;;;;;;5064068;28;20052;-71
2020/12/14 03:19:10;;;;;;;19.27;17.05;;;4.80;99.90;;;;;;5064966;28;20150;-71
2020/12/14 03:21:37;;;;;;;17.10;15.45;;;4.80;99.90;;;;;;5062450;28;20056;-70
2020/12/14 03:24:04;;;;;;;17.67;15.98;;;4.80;99.90;;;;;;5063023;28;20060;-71
2020/12/14 03:26:30;;;;;;;17.38;15.55;;;4.80;99.90;;;;;;5054781;28;20060;-71
2020/12/14 03:28:57;;;;;;;24.10;15.45;;;4.90;99.90;;;;;;5046330;28;20674;-71
2020/12/14 03:31:24;;;;;;;16.25;14.73;;;4.90;99.90;;;;;;5045327;28;20671;-70
2020/12/14 03:33:52;;;;;;;18.55;14.82;;;4.90;99.90;;;;;;5063493;28;20049;-70
2020/12/14 03:36:20;;;;;;;18.63;16.42;;;4.90;99.90;;;;;;5078881;28;20849;-71
2020/12/14 03:38:51;;;;;;;17.00;15.25;;;4.90;99.90;;;;;;5059305;28;20057;-71
2020/12/14 03:41:19;;;;;;;22.08;16.65;;;4.90;99.90;;;;;;5044369;28;20060;-71
2020/12/14 03:43:45;;;;;;;18.90;17.20;;;4.90;99.90;;;;;;5042600;28;20048;-71
2020/12/14 03:46:15;;;;;;;19.98;17.60;;;4.90;99.90;;;;;;5040330;28;20052;-71
2020/12/14 03:48:42;;;;;;;18.45;16.50;;;4.90;99.90;;;;;;5044195;28;20683;-71
2020/12/14 03:51:10;;;;;;;19.02;16.38;;;4.90;99.90;;;;;;5042499;28;20136;-71
2020/12/14 03:53:37;;;;;;;17.77;16.17;;;5.00;99.90;;;;;;5026362;28;20120;-70
2020/12/14 03:56:03;;;;;;;21.77;17.10;;;5.00;99.90;;;;;;5059826;28;20685;-71
2020/12/14 03:58:30;;;;;;;20.77;18.05;;;5.00;99.90;;;;;;5063790;28;20052;-71
2020/12/14 04:00:57;;;;;;;18.58;16.35;;;5.00;99.90;;;;;;5062047;28;20526;-71
2020/12/14 04:03:25;;;;;;;18.08;16.17;;;5.00;99.90;;;;;;5063352;28;20505;-71
2020/12/14 04:05:51;;;;;;;19.55;17.58;;;5.00;99.90;;;;;;5063156;28;20071;-71
2020/12/14 04:08:18;;;;;;;18.00;16.40;;;5.00;99.90;;;;;;5064043;28;20055;-71
2020/12/14 04:10:44;;;;;;;18.05;16.33;;;5.00;99.90;;;;;;5062104;28;20667;-71
2020/12/14 04:13:10;;;;;;;18.42;16.67;;;5.10;99.90;;;;;;5062779;28;20060;-70
2020/12/14 04:15:37;;;;;;;17.67;15.90;;;5.10;99.90;;;;;;5064235;28;20056;-70
2020/12/14 04:18:03;;;;;;;18.30;16.80;;;5.20;99.90;;;;;;5063459;28;20062;-71
2020/12/14 04:20:30;;;;;;;26.50;16.63;;;5.20;99.90;;;;;;5062690;28;20310;-71
2020/12/14 04:22:56;;;;;;;19.55;17.65;;;5.20;99.90;;;;;;5046075;28;20052;-71
2020/12/14 04:25:23;;;;;;;17.27;15.77;;;5.20;99.90;;;;;;5062051;28;20144;-70
2020/12/14 04:27:49;;;;;;;18.58;17.10;;;5.30;99.90;;;;;;5035361;28;20129;-71
2020/12/14 04:30:17;;;;;;;17.95;16.38;;;5.30;99.90;;;;;;5061281;28;20044;-71
2020/12/14 04:32:45;;;;;;;17.80;16.30;;;5.30;99.90;;;;;;5062590;28;20053;-70
2020/12/14 04:35:11;;;;;;;18.92;17.05;;;5.40;99.90;;;;;;5063715;28;20102;-71
2020/12/14 04:37:37;;;;;;;19.33;17.52;;;5.40;99.90;;;;;;5079229;28;20049;-71
2020/12/14 04:40:05;;;;;;;20.30;16.40;;;5.40;99.90;;;;;;5045563;28;20045;-71
2020/12/14 04:42:31;;;;;;;18.23;16.75;;;5.50;99.90;;;;;;5045091;28;20048;-71
2020/12/14 04:44:58;;;;;;;18.65;16.90;;;5.50;99.90;;;;;;5064327;28;20061;-71
2020/12/14 04:47:27;;;;;;;18.85;16.92;;;5.50;99.90;;;;;;5060209;28;20252;-72
2020/12/14 04:49:55;;;;;;;18.70;17.10;;;5.50;99.90;;;;;;5062866;28;20556;-72
2020/12/14 04:52:23;;;;;;;18.13;16.40;;;5.40;99.90;;;;;;5062520;28;20053;-70
2020/12/14 04:54:50;;;;;;;17.60;16.10;;;5.40;99.90;;;;;;5063096;28;20049;-71
2020/12/14 04:57:20;;;;;;;17.92;16.52;;;5.40;99.90;;;;;;5042655;28;20032;-71
2020/12/14 04:59:47;;;;;;;17.80;16.08;;;5.40;99.90;;;;;;5065075;28;20071;-71
2020/12/14 05:02:13;;;;;;;17.17;15.68;;;5.40;99.90;;;;;;5066501;28;20054;-71
2020/12/14 05:04:40;;;;;;;17.92;16.23;;;5.40;99.90;;;;;;5066012;28;20102;-71
2020/12/14 05:07:06;;;;;;;17.10;15.90;;;5.40;99.90;;;;;;5064964;28;20067;-72
2020/12/14 05:09:33;;;;;;;19.30;17.30;;;5.30;99.90;;;;;;5065647;28;20814;-71
2020/12/14 05:12:00;;;;;;;18.17;16.42;;;5.30;99.90;;;;;;5067095;28;20071;-72
2020/12/14 05:14:28;;;;;;;18.13;16.50;;;5.40;99.90;;;;;;5049404;28;20041;-72
2020/12/14 05:16:55;;;;;;;18.42;16.73;;;5.40;99.90;;;;;;5064664;28;20048;-71
2020/12/14 05:19:27;;;;;;;17.75;16.02;;;5.30;99.90;;;;;;5065758;28;20202;-72
2020/12/14 05:22:01;;;;;;;16.73;15.60;;;5.40;99.90;;;;;;5046960;28;20060;-71
2020/12/14 05:24:28;;;;;;;19.60;18.10;;;5.30;99.90;;;;;;5067015;28;20058;-71
2020/12/14 05:26:57;;;;;;;19.27;17.58;;;5.40;99.90;;;;;;5055953;28;20079;-71
2020/12/14 05:29:28;;;;;;;20.23;18.48;;;5.40;99.90;;;;;;5048563;28;20143;-72
2020/12/14 05:32:11;;;;;;;19.40;17.67;;;5.40;99.90;;;;;;5064444;28;20063;-71
2020/12/14 05:34:42;;;;;;;20.40;18.50;;;5.40;99.90;;;;;;5032424;28;20053;-72
2020/12/14 05:37:10;;;;;;;19.92;18.13;;;5.40;99.90;;;;;;5064835;28;20074;-72
2020/12/14 05:39:37;;;;;;;17.45;16.02;;;5.40;99.90;;;;;;5048172;28;20088;-72
2020/12/14 05:42:12;;;;;;;19.50;17.88;;;5.40;99.90;;;;;;5066785;28;20482;-71
2020/12/14 05:44:40;;;;;;;19.90;18.08;;;5.30;99.90;;;;;;5048955;28;20059;-71
2020/12/14 05:47:30;;;;;;;20.25;18.45;;;5.40;99.90;;;;;;5064363;28;20048;-71
2020/12/14 05:49:58;;;;;;;18.40;16.90;;;5.40;99.90;;;;;;5066864;28;20106;-71
2020/12/14 05:52:34;;;;;;;18.67;16.85;;;5.30;99.90;;;;;;5064510;28;20475;-71
2020/12/14 05:55:01;;;;;;;19.00;17.40;;;5.30;99.90;;;;;;5047775;28;20339;-71
2020/12/14 05:57:32;;;;;;;18.42;16.92;;;5.30;99.90;;;;;;5050771;28;20149;-71
2020/12/14 06:00:03;;;;;;;19.23;17.40;;;5.20;99.90;;;;;;5028797;28;20045;-71
2020/12/14 06:02:31;;;;;;;18.67;17.00;;;5.20;99.90;;;;;;5046058;28;20053;-71
2020/12/14 06:04:59;;;;;;;18.33;16.70;;;5.20;99.90;;;;;;5064986;28;20053;-71
2020/12/14 06:07:29;;;;;;;19.38;17.63;;;5.20;99.90;;;;;;5064368;28;20044;-71
2020/12/14 06:10:03;;;;;;;20.52;17.95;;;5.20;99.90;;;;;;5065777;28;20048;-71
2020/12/14 06:12:31;;;;;;;16.98;15.52;;;5.20;99.90;;;;;;5047236;28;20627;-71
2020/12/14 06:15:09;;;;;;;18.25;16.85;;;5.20;99.90;;;;;;5064732;28;20045;-71
2020/12/14 06:17:37;;;;;;;16.98;15.68;;;5.20;99.90;;;;;;5063089;28;20056;-72
2020/12/14 06:20:16;;;;;;;17.83;16.30;;;5.20;99.90;;;;;;5064483;28;20083;-71
2020/12/14 06:22:45;;;;;;;18.02;16.27;;;5.20;99.90;;;;;;5058230;28;20051;-72
2020/12/14 06:25:12;;;;;;;18.50;16.73;;;5.20;99.90;;;;;;5044594;28;20237;-71
2020/12/14 06:27:38;;;;;;;20.27;18.55;;;5.20;99.90;;;;;;5060619;28;20353;-71
2020/12/14 06:30:33;;;;;;;19.45;17.58;;;5.20;99.90;;;;;;5063887;28;20054;-72
2020/12/14 06:33:08;;;;;;;17.23;15.85;;;5.20;99.90;;;;;;5065769;28;20732;-72
2020/12/14 06:35:41;;;;;;;;;;;5.20;99.90;;;;;;5065731;28;20465;-72
2020/12/14 06:38:07;;;;;;;17.08;13.48;;;5.20;99.90;;;;;;5046923;28;19956;-72
2020/12/14 06:40:58;;;;;;;13.93;12.52;;;5.20;99.90;;;;;;5046506;28;20044;-72
2020/12/14 06:43:34;;;;;;;14.63;13.23;;;5.30;99.90;;;;;;5065946;28;20045;-71
2020/12/14 06:46:04;;;;;;;13.10;11.93;;;5.30;99.90;;;;;;5030460;28;20040;-72
2020/12/14 06:48:34;;;;;;;15.45;14.02;;;5.30;99.90;;;;;;5031041;28;20090;-71
2020/12/14 06:51:01;;;;;;;14.50;13.05;;;5.30;99.90;;;;;;5066019;28;20049;-72
2020/12/14 06:53:49;;;;;;;14.05;12.57;;;5.30;99.90;;;;;;5064245;28;20055;-71
2020/12/14 06:56:37;;;;;;;15.80;14.30;;;5.30;99.90;;;;;;5055725;28;20041;-72
2020/12/14 06:59:28;;;;;;;15.90;13.93;;;5.30;99.90;;;;;;5063661;28;20083;-71
2020/12/14 07:02:02;;;;;;;15.20;12.30;;;5.30;99.90;;;;;;5062895;28;20436;-71
2020/12/14 07:04:28;;;;;;;15.63;13.88;;;5.30;99.90;;;;;;5047466;28;20045;-71
2020/12/14 07:06:55;;;;;;;14.80;13.13;;;5.30;99.90;;;;;;5064247;28;20559;-71
2020/12/14 07:09:29;;;;;;;14.93;13.68;;;5.30;99.90;;;;;;5063012;28;20047;-70
2020/12/14 07:12:16;;;;;;;15.82;14.27;;;5.40;99.90;;;;;;5063025;28;20044;-71
2020/12/14 07:14:47;;;;;;;17.27;15.48;;;5.40;99.90;;;;;;5065089;28;20125;-71
2020/12/14 07:17:21;;;;;;;16.77;15.13;;;5.30;99.90;;;;;;5046284;28;20079;-71
2020/12/14 07:19:55;;;;;;;17.42;15.68;;;5.30;99.90;;;;;;5062293;28;20060;-72
2020/12/14 07:22:48;;;;;;;16.65;15.25;;;5.30;99.90;;;;;;5057887;28;20052;-71
2020/12/14 07:25:21;;;;;;;17.42;15.43;;;5.30;99.90;;;;;;5056260;28;20045;-71
2020/12/14 07:27:48;;;;;;;16.60;15.20;;;5.40;99.90;;;;;;5047865;28;20052;-71
2020/12/14 07:30:14;;;;;;;14.50;13.32;;;5.40;99.90;;;;;;5057495;28;20048;-71
2020/12/14 07:32:41;;;;;;;19.15;17.38;;;5.30;99.90;;;;;;5041791;28;20083;-71
2020/12/14 07:35:09;;;;;;;17.95;14.93;;;5.40;99.90;;;;;;5058980;28;20068;-71
2020/12/14 07:37:36;;;;;;;15.20;13.50;;;5.40;99.90;;;;;;5063762;28;20052;-71
2020/12/14 07:40:12;;;;;;;15.85;14.40;;;5.40;99.90;;;;;;5045551;28;20110;-71
2020/12/14 07:42:44;;;;;;;16.50;15.02;;;5.40;99.90;;;;;;5082289;28;20547;-71
2020/12/14 07:45:18;;;;;;;17.42;15.85;;;5.40;99.90;;;;;;5082379;28;20045;-70
2020/12/14 07:47:47;;;;;;;18.40;15.57;;;5.40;99.90;;;;;;5082165;28;20060;-71
2020/12/14 07:50:25;;;;;;;17.10;15.50;;;5.40;99.90;;;;;;5082077;28;20090;-71
2020/12/14 07:52:54;;;;;;;16.05;14.75;;;5.50;99.90;;;;;;5066995;28;20683;-71
2020/12/14 07:55:22;;;;;;;17.45;15.98;;;5.50;99.90;;;;;;5059352;28;20045;-70
2020/12/14 07:57:49;;;;;;;19.58;16.58;;;5.50;99.90;;;;;;5058160;28;20045;-71
2020/12/14 08:00:23;;;;;;;17.10;15.65;;;5.50;99.90;;;;;;5061828;28;20727;-71
2020/12/14 08:02:50;;;;;;;17.10;15.70;;;5.60;99.90;;;;;;5060734;28;20060;-71
2020/12/14 08:05:20;;;;;;;17.88;16.45;;;5.50;99.90;;;;;;5055119;28;20079;-71
2020/12/14 08:07:52;;;;;;;17.80;16.02;;;5.50;99.90;;;;;;5009692;28;20512;-71
2020/12/14 08:10:21;;;;;;;15.60;14.40;;;5.50;99.90;;;;;;5046942;28;20040;-71
2020/12/14 08:12:48;;;;;;;17.80;16.08;;;5.50;99.90;;;;;;5064193;28;20492;-72
2020/12/14 08:15:19;;;;;;;16.92;15.30;;;5.50;99.90;;;;;;5064126;28;20049;-71
2020/12/14 08:17:46;;;;;;;17.63;15.93;;;5.50;99.90;;;;;;5063261;28;20058;-71
2020/12/14 08:20:33;;;;;;;16.67;15.13;;;5.50;99.90;;;;;;5062732;28;20147;-71
2020/12/14 08:23:01;;;;;;;16.08;14.77;;;5.50;99.90;;;;;;5046365;28;20469;-71
2020/12/14 08:25:29;;;;;;;16.50;14.77;;;5.60;99.90;;;;;;5056423;28;20224;-72
2020/12/14 08:27:58;;;;;;;17.00;15.48;;;5.60;99.90;;;;;;5060057;28;20056;-72
2020/12/14 08:30:25;;;;;;;17.25;15.52;;;5.60;99.90;;;;;;5063034;28;20063;-71
2020/12/14 08:33:11;;;;;;;16.83;15.27;;;5.60;99.90;;;;;;5083682;28;20563;-71
2020/12/14 08:35:39;;;;;;;16.17;14.77;;;5.70;99.90;;;;;;5066640;28;20337;-72
2020/12/14 08:38:09;;;;;;;17.17;15.70;;;5.60;99.90;;;;;;5067301;28;20048;-71
2020/12/14 08:40:37;;;;;;;16.63;15.25;;;5.60;99.90;;;;;;5065824;28;20045;-71
2020/12/14 08:43:24;;;;;;;16.75;15.40;;;5.70;99.90;;;;;;5049869;28;20285;-71
2020/12/14 08:46:08;;;;;;;16.55;15.05;;;5.70;99.90;;;;;;5068580;28;20060;-72
2020/12/14 08:48:48;;;;;;;17.88;16.27;;;5.70;99.90;;;;;;5049469;28;20525;-72
2020/12/14 08:51:32;;;;;;;19.75;17.67;;;5.70;99.90;;;;;;5049571;28;20040;-71
2020/12/14 08:54:12;;;;;;;17.25;15.82;;;5.80;99.90;;;;;;5056485;28;20042;-71
2020/12/14 08:56:38;;;;;;;17.67;15.82;;;5.80;99.90;;;;;;5062025;28;20048;-71
2020/12/14 08:59:15;;;;;;;17.90;16.25;;;5.80;99.90;;;;;;5056553;28;20045;-72
2020/12/14 09:02:00;;;;;;;17.85;16.50;;;5.80;99.90;;;;;;5046353;28;20054;-72
2020/12/14 09:04:30;;;;;;;17.17;15.55;;;5.80;99.90;;;;;;5049255;28;20595;-71
2020/12/14 09:06:56;;;;;;;18.52;16.77;;;5.80;99.90;;;;;;5048323;28;20055;-72
2020/12/14 09:09:34;;;;;;;18.63;17.08;;;5.90;99.90;;;;;;5065799;28;20060;-71
2020/12/14 09:12:08;;;;;;;17.75;16.27;;;5.90;99.90;;;;;;5065120;28;20072;-71
2020/12/14 09:14:34;;;;;;;16.83;15.43;;;5.90;99.90;;;;;;5066092;28;20055;-71
2020/12/14 09:17:04;;;;;;;18.15;16.58;;;5.90;99.90;;;;;;5063897;28;20044;-72
2020/12/14 09:19:32;;;;;;;17.88;16.23;;;5.90;99.90;;;;;;5063698;28;20057;-73
2020/12/14 09:22:00;;;;;;;17.92;16.13;;;6.00;99.90;;;;;;5063712;28;20052;-72
2020/12/14 09:24:28;;;;;;;17.20;15.80;;;6.00;99.90;;;;;;5065135;28;20059;-72
2020/12/14 09:27:05;;;;;;;17.42;15.80;;;6.00;99.90;;;;;;5058798;28;20612;-71
2020/12/14 09:29:32;;;;;;;16.95;15.40;;;6.00;99.90;;;;;;5062497;28;20115;-72
2020/12/14 09:31:59;;;;;;;17.63;16.08;;;6.00;99.90;;;;;;5009729;28;20052;-71
2020/12/14 09:34:26;;;;;;;18.38;16.50;;;6.00;99.90;;;;;;5028558;28;20044;-72
2020/12/14 09:36:56;;;;;;;18.10;16.42;;;6.10;99.90;;;;;;5045978;28;20056;-72
2020/12/14 09:39:24;;;;;;;17.58;16.25;;;6.10;99.90;;;;;;5012049;28;20076;-72
2020/12/14 09:41:52;;;;;;;15.98;14.65;;;6.10;99.90;;;;;;5058923;28;20059;-72
2020/12/14 09:44:18;;;;;;;15.38;14.15;;;6.20;99.90;;;;;;5064743;28;20041;-71
2020/12/14 09:46:45;;;;;;;18.88;17.13;;;6.20;99.90;;;;;;5065570;28;20072;-71
2020/12/14 09:49:12;;;;;;;18.77;17.27;;;6.30;99.90;;;;;;5064312;28;20052;-72
2020/12/14 09:51:39;;;;;;;18.33;16.70;;;6.20;99.90;;;;;;5048081;28;20044;-72
2020/12/14 09:54:06;;;;;;;18.15;16.63;;;6.10;99.90;;;;;;5058392;28;20041;-73
2020/12/14 09:56:33;;;;;;;16.83;15.05;;;6.00;99.90;;;;;;5069851;28;20033;-74
2020/12/14 09:59:00;;;;;;;15.10;13.63;;;5.90;99.90;;;;;;5038501;28;20326;-73
2020/12/14 10:01:28;;;;;;;14.23;12.85;;;5.80;99.90;;;;;;5063821;28;20048;-72
2020/12/14 10:03:56;;;;;;;18.40;13.70;;;5.70;99.90;;;;;;5031259;28;20202;-73
2020/12/14 10:06:23;;;;;;;14.95;13.40;;;5.70;99.90;;;;;;5065563;28;20060;-73
2020/12/14 10:08:50;;;;;;;17.00;11.73;;;5.70;99.90;;;;;;5066019;28;20052;-73
2020/12/14 10:11:16;;;;;;;14.98;11.65;;;5.70;99.90;;;;;;5063727;28;20727;-73
2020/12/14 10:13:43;;;;;;;14.20;12.25;;;5.60;99.90;;;;;;5063445;28;20055;-73
2020/12/14 10:16:13;;;;;;;14.95;12.75;;;5.60;99.90;;;;;;5047616;28;20056;-72
2020/12/14 10:18:40;;;;;;;24.85;13.60;;;5.70;99.90;;;;;;5031344;28;20056;-73
2020/12/14 10:21:09;;;;;;;13.93;12.35;;;5.60;99.90;;;;;;5063871;28;20127;-73
2020/12/14 10:23:35;;;;;;;13.93;11.23;;;5.60;99.90;;;;;;5046129;28;20051;-73
2020/12/14 10:26:01;;;;;;;15.48;12.23;;;5.60;99.90;;;;;;5055953;28;20059;-73
2020/12/14 10:28:28;;;;;;;18.05;12.13;;;5.60;99.90;;;;;;5052130;28;20056;-72
2020/12/14 10:30:55;;;;;;;14.10;11.27;;;5.70;99.90;;;;;;5047368;28;20506;-74
2020/12/14 10:33:22;;;;;;;11.45;10.20;;;5.60;99.90;;;;;;5044267;28;20048;-73
2020/12/14 10:35:49;;;;;;;14.30;11.73;;;5.70;99.90;;;;;;5059844;28;20088;-73
2020/12/14 10:38:15;;;;;;;12.70;10.68;;;5.60;99.90;;;;;;5043489;28;20053;-73
2020/12/14 10:40:42;;;;;;;14.25;11.20;;;5.60;99.90;;;;;;5063115;28;20094;-73
2020/12/14 10:43:08;;;;;;;11.80;9.77;;;5.60;99.90;;;;;;5063724;28;20045;-73
2020/12/14 10:45:35;;;;;;;15.55;10.27;;;5.60;99.90;;;;;;5062829;28;20128;-73
2020/12/14 10:48:02;;;;;;;13.88;11.23;;;5.60;99.90;;;;;;5060611;28;20045;-74
2020/12/14 10:50:29;;;;;;;12.07;10.15;;;5.60;99.90;;;;;;5046391;28;20050;-73
2020/12/14 10:52:55;;;;;;;11.40;9.57;;;5.60;99.90;;;;;;5029322;28;20048;-73
2020/12/14 10:55:24;;;;;;;9.93;8.93;;;5.60;99.90;;;;;;5054452;28;20079;-73
2020/12/14 10:57:51;;;;;;;12.13;10.18;;;5.50;99.90;;;;;;5027629;28;20049;-73
2020/12/14 11:00:21;;;;;;;11.18;10.00;;;5.60;99.90;;;;;;5009800;28;20040;-73
2020/12/14 11:02:47;;;;;;;12.48;9.85;;;5.60;99.90;;;;;;5043622;28;20471;-73
2020/12/14 11:05:13;;;;;;;12.23;10.77;;;5.60;99.90;;;;;;5026235;28;20059;-73
2020/12/14 11:07:40;;;;;;;11.80;10.60;;;5.60;99.90;;;;;;5046089;28;20059;-73
2020/12/14 11:10:09;;;;;;;11.38;10.18;;;5.60;99.90;;;;;;5060000;28;20059;-72
2020/12/14 11:12:36;;;;;;;11.80;8.93;;;5.60;99.90;;;;;;5066353;28;20127;-73
2020/12/14 11:15:07;;;;;;;10.40;9.02;;;5.60;99.90;;;;;;5063383;28;20139;-72
2020/12/14 11:17:35;;;;;;;10.48;9.38;;;5.70;99.90;;;;;;5046829;28;20109;-73
2020/12/14 11:20:05;;;;;;;10.23;8.43;;;5.80;99.90;;;;;;5046300;28;20053;-74
2020/12/14 11:22:32;;;;;;;11.43;9.40;;;5.80;99.90;;;;;;5043213;28;20073;-73
2020/12/14 11:24:58;;;;;;;11.20;9.98;;;5.80;99.90;;;;;;5041266;28;20106;-73
2020/12/14 11:27:25;;;;;;;14.95;9.65;;;5.90;99.90;;;;;;5042609;28;20049;-72
2020/12/14 11:29:51;;;;;;;12.77;10.00;;;5.90;99.90;;;;;;5043791;28;20064;-72
2020/12/14 11:32:17;;;;;;;10.32;8.68;;;6.00;99.90;;;;;;5025517;28;20041;-72
2020/12/14 11:34:44;;;;;;;10.48;9.45;;;6.00;99.90;;;;;;5026812;28;20044;-72
2020/12/14 11:37:11;;;;;;;9.25;8.35;;;6.10;99.90;;;;;;5041407;28;20029;-72
2020/12/14 11:39:38;;;;;;;10.05;7.95;;;6.10;99.90;;;;;;5042307;28;20041;-71
2020/12/14 11:42:08;;;;;;;10.13;9.05;;;6.10;99.90;;;;;;5040537;28;20654;-72
2020/12/14 11:44:34;;;;;;;11.45;10.25;;;6.10;99.90;;;;;;5050599;28;20052;-72
2020/12/14 11:47:01;;;;;;;11.18;10.18;;;6.10;99.90;;;;;;5043229;28;20063;-72
2020/12/14 11:49:27;;;;;;;13.27;11.15;;;6.10;99.90;;;;;;5057736;28;20072;-72
2020/12/14 11:51:53;;;;;;;10.07;9.07;;;6.10;99.90;;;;;;5053842;28;20053;-72
2020/12/14 11:54:19;;;;;;;10.70;9.60;;;6.10;99.90;;;;;;5059680;28;20084;-73
2020/12/14 11:56:46;;;;;;;11.18;10.15;;;6.10;99.90;;;;;;5051336;28;20139;-71
2020/12/14 11:59:13;;;;;;;10.15;9.23;;;6.20;99.90;;;;;;5026308;28;20055;-72
2020/12/14 12:01:40;;;;;;;11.27;10.18;;;6.20;99.90;;;;;;5008425;28;20144;-71
2020/12/14 12:04:09;;;;;;;10.38;9.35;;;6.20;99.90;;;;;;5025991;28;20144;-71
2020/12/14 12:06:36;;;;;;;15.02;11.43;;;6.30;99.90;;;;;;5052952;28;20822;-72
2020/12/14 12:09:04;;;;;;;11.70;10.60;;;6.30;99.90;;;;;;5068400;28;20052;-71
2020/12/14 12:11:33;;;;;;;10.52;9.52;;;6.40;99.90;;;;;;5066666;28;20683;-72
2020/12/14 12:13:59;;;;;;;11.68;10.57;;;6.50;99.90;;;;;;5068290;28;20507;-71
2020/12/14 12:16:27;;;;;;;10.98;10.02;;;6.60;99.90;;;;;;5066049;28;20463;-70
2020/12/14 12:18:54;;;;;;;9.95;9.18;;;6.60;99.90;;;;;;5067788;28;20052;-71
2020/12/14 12:21:21;;;;;;;11.02;9.77;;;6.60;99.90;;;;;;5065558;28;20076;-71
2020/12/14 12:23:48;;;;;;;10.40;9.60;;;6.60;99.90;;;;;;5065695;28;20491;-71
2020/12/14 12:26:15;;;;;;;9.93;8.73;;;6.70;99.90;;;;;;5055185;28;20090;-71
2020/12/14 12:28:42;;;;;;;10.90;10.00;;;6.70;99.90;;;;;;5043126;28;20102;-70
2020/12/14 12:31:09;;;;;;;10.88;9.88;;;6.80;99.90;;;;;;5065101;28;20045;-71
2020/12/14 12:33:36;;;;;;;10.80;9.93;;;6.80;99.90;;;;;;5066299;28;20612;-71
2020/12/14 12:36:02;;;;;;;11.40;8.55;;;6.90;99.90;;;;;;5064300;28;20045;-71
2020/12/14 12:38:29;;;;;;;11.45;9.23;;;6.90;99.90;;;;;;5066722;28;20057;-70
2020/12/14 12:40:55;;;;;;;10.07;9.30;;;7.00;99.90;;;;;;5064818;28;20397;-70
2020/12/14 12:43:21;;;;;;;8.75;8.15;;;7.00;99.90;;;;;;5072517;28;20053;-70
2020/12/14 12:45:50;;;;;;;8.80;8.13;;;7.10;99.90;;;;;;5045750;28;20037;-71